Grizzly Air Cargo 5126


PANC
Ted Stevens Anchorage International Airport
Anchorage, Alaska, US
CYEG
Edmonton International Airport
Edmonton, , CA

Activity Log

Date Flight Route Aircraft Duration
No Flights Yet

Route Details

Aircraft Information
Primary: Boeing 737-800BCF
Backup: Boeing 727-200F
Route Data
Distance: 1258nm
Sched. Duration: 3h 25m
Avg. Duration: 0h 00m (-325m)
Times Flown: 0
Recm'd Route: YESKA NCA13 YXY V326 YQH V326 YYE J537 YPE J601 XD
Planned Altitude: 35,000ft
Origin Wx: PANC 251253Z 32006KT 10SM OVC065 02/M02 A3016 RMK AO2 SLP214 T00171017 $
Dest. Wx: CYEG 251200Z 22005KT 20SM SKC M16/M19 A3046 RMK SLP375
Notes:

Financial History
Total Freight: 0lbs
Average Load: 0lbs/flt
Fuel Used: 0lbs
Avg. Fuel Used: 0lbs/flt
Fuel Expense: $0
Avg. Fuel Expense: $0
Avg. Fuel Cost: $0/lbs
Total Gross Income: $0
Pilot Pay: $0
Total Expenses: $0
Total Revenue: $0
Average Revenue: $0